Station: Mount Crawford

  Atmospheric Gas Attenuation - ITU Rec 676-11   --------------- db/100km ---------------
Date Time Temp RH % AH g/m3 Dew Point Wind Direction Speed kph Gust kph Barometer mB Rainfall Since 9am 24GHz 47GHz 76GHz 122GHz 134GHz 241GHz
15 01:20 8.4 98 8.32 8.1 20 24 1015.6 4.6 19.2 27.1 41.5 109.0 101.8 349.6
15 01:10 8.4 98 8.32 8.1 20 24 1015.6 4.6 19.2 27.1 41.5 109.0 101.8 349.6
15 01:00 8.4 98 8.32 8.1 17 19 1015.5 4.6 19.2 27.1 41.5 109.0 101.8 349.6
15 00:50 8.5 98 8.37 8.2 19 20 1015.5 4.6 19.4 27.2 41.7 109.4 102.4 351.6
15 00:40 8.6 98 8.42 8.3 19 20 1015.6 4.6 19.5 27.2 41.9 109.8 102.9 353.6
15 00:30 8.5 98 8.37 8.2 20 22 1015.6 4.6 19.4 27.2 41.7 109.4 102.4 351.6
15 00:20 8.6 98 8.42 8.3 22 24 1015.5 4.6 19.5 27.2 41.8 109.8 102.9 353.6
15 00:10 8.6 98 8.42 8.3 20 22 1015.6 4.6 19.5 27.2 41.9 109.8 102.9 353.6
15 00:00 8.5 98 8.37 8.2 17 24 1015.5 4.6 19.4 27.2 41.7 109.4 102.4 351.6
14 23:50 8.6 98 8.42 8.3 17 19 1015.5 4.6 19.5 27.2 41.8 109.8 102.9 353.6
14 23:40 8.7 98 8.48 8.4 15 17 1015.7 4.6 19.6 27.3 42.1 110.4 103.7 356.2
14 23:30 8.9 98 8.59 8.6 15 20 1015.6 4.6 19.8 27.4 42.4 111.4 104.9 360.7
14 23:20 8.9 98 8.59 8.6 17 19 1015.7 4.6 19.8 27.5 42.4 111.4 104.9 360.7
14 23:10 9.1 98 8.7 8.8 17 22 1015.7 4.6 20.0 27.6 42.8 112.4 106.2 365.2
14 23:00 9.3 98 8.81 9 17 19 1015.6 4.6 20.3 27.7 43.1 113.3 107.5 369.7
14 22:50 9.6 98 8.98 9.3 15 17 1015.6 4.6 20.6 27.9 43.7 114.8 109.5 376.7
14 22:40 9.8 98 9.09 9.5 13 15 1015.6 4.6 20.8 28.0 44.1 115.8 110.8 381.2
14 22:30 9.9 98 9.15 9.6 15 17 1015.5 4.6 21.0 28.1 44.3 116.3 111.5 383.6
14 22:20 10.1 98 9.27 9.8 15 17 1015.5 4.6 21.2 28.2 44.7 117.4 112.9 388.6
14 22:10 10.3 98 9.39 10 13 15 1015.5 4.6 21.5 28.4 45.1 118.5 114.3 393.6
14 22:00 10.5 98 9.51 10.2 11 15 1015.4 4.6 21.7 28.5 45.5 119.6 115.7 398.5
14 21:50 10.6 98 9.57 10.3 7 9 1015.4 4.6 21.8 28.6 45.7 120.1 116.4 401.0
14 21:40 10.6 98 9.57 10.3 9 9 1015.4 4.4 21.8 28.6 45.7 120.1 116.4 401.0
14 21:30 11 98 9.81 10.7 2 6 1015.4 3.6 22.3 28.9 46.5 122.3 119.2 410.9
14 21:20 11 98 9.81 10.7 7 9 1015.4 3.6 22.3 28.9 46.5 122.3 119.2 410.9
14 21:10 11 98 9.81 10.7 9 13 1015.4 3.6 22.3 28.9 46.5 122.3 119.2 410.9
14 21:00 11 98 9.81 10.7 9 9 1015.4 3.6 22.3 28.9 46.5 122.3 119.2 410.9
14 20:50 11.1 98 9.87 10.8 9 11 1015.4 3.6 22.5 29.0 46.7 122.8 119.9 413.4
14 20:40 11.1 98 9.87 10.8 11 15 1015.4 3.6 22.5 29.0 46.7 122.8 119.9 413.4
14 20:30 11.2 98 9.94 10.9 17 22 1015.3 3.6 22.6 29.0 47.0 123.5 120.8 416.4
14 20:20 11.2 98 9.94 10.9 13 15 1015.3 3.6 22.6 29.0 47.0 123.5 120.8 416.4
14 20:10 11.2 98 9.94 10.9 17 20 1015.2 3.6 22.6 29.0 46.9 123.5 120.8 416.3
14 20:00 11.3 98 10 11 17 20 1015.2 3.6 22.7 29.1 47.1 124.0 121.5 418.8
14 19:50 11.3 98 10 11 19 20 1015.1 3.6 22.7 29.1 47.1 124.0 121.5 418.8
14 19:40 11.3 98 10 11 11 15 1015.1 3.6 22.7 29.1 47.1 124.0 121.5 418.8
14 19:30 11.3 98 10 11 17 26 1015 3.6 22.7 29.1 47.1 124.0 121.5 418.7
14 19:20 11.3 98 10 11 15 20 1014.9 3.6 22.7 29.1 47.1 124.0 121.4 418.7
14 19:10 11.3 98 10 11 15 20 1014.8 3.4 22.7 29.1 47.1 124.0 121.4 418.7
14 19:00 11.3 98 10 11 19 24 1014.7 3.2 22.7 29.1 47.1 124.0 121.4 418.6
14 18:50 11.3 98 10 11 13 15 1014.6 3.2 22.7 29.1 47.1 123.9 121.4 418.6
14 18:40 11.3 98 10 11 17 20 1014.6 3.2 22.7 29.1 47.1 123.9 121.4 418.6
14 18:30 11.3 97 9.9 10.8 19 20 1014.5 3.2 22.5 28.9 46.7 122.8 120.0 413.6
14 18:20 11.3 97 9.9 10.8 19 22 1014.4 3.2 22.5 28.9 46.7 122.7 120.0 413.5
14 18:10 11.3 97 9.9 10.8 13 17 1014.3 3 22.5 28.9 46.7 122.7 119.9 413.5
14 18:00 11.2 97 9.83 10.7 15 17 1014.2 3 22.4 28.8 46.4 122.1 119.1 410.5
14 17:50 11.2 97 9.83 10.7 17 19 1014 3 22.4 28.8 46.4 122.0 119.1 410.4
14 17:40 11.2 97 9.83 10.7 17 22 1013.9 3 22.4 28.8 46.4 122.0 119.1 410.4
14 17:30 11.2 97 9.83 10.7 13 15 1013.9 3 22.4 28.8 46.4 122.0 119.1 410.4
14 17:20 11.2 97 9.83 10.7 17 20 1013.8 3 22.4 28.8 46.4 122.0 119.1 410.4
14 17:10 11.1 97 9.77 10.6 20 26 1013.7 3 22.2 28.7 46.2 121.5 118.3 407.9
14 17:00 11.1 97 9.77 10.6 13 17 1013.8 3 22.2 28.7 46.2 121.5 118.3 407.9
14 16:50 11.1 96 9.67 10.5 17 19 1013.7 3 22.0 28.5 45.8 120.3 116.9 402.9
14 16:40 11.1 96 9.67 10.5 19 22 1013.6 3 22.0 28.5 45.7 120.3 116.9 402.8
14 16:30 11.1 96 9.67 10.5 19 28 1013.4 3 22.0 28.5 45.7 120.3 116.9 402.8
14 16:20 11.1 96 9.67 10.5 19 20 1013.3 3 22.0 28.5 45.7 120.3 116.9 402.7
14 16:10 11.2 95 9.63 10.4 19 24 1013.3 3 21.9 28.4 45.5 119.6 116.1 400.2
14 16:00 11.2 95 9.63 10.4 24 32 1013.2 3 21.9 28.4 45.5 119.6 116.1 400.2
14 15:50 11.1 96 9.67 10.5 32 37 1013 3 22.0 28.5 45.7 120.2 116.8 402.6
14 15:40 11.5 97 10.02 11 20 24 1012.9 3 22.8 29.0 47.0 123.7 121.2 418.0
14 15:30 11.4 97 9.96 10.9 32 37 1012.8 3 22.6 28.9 46.8 123.1 120.5 415.5
14 15:20 11.4 97 9.96 10.9 22 24 1012.9 2.8 22.6 28.9 46.8 123.1 120.5 415.5
14 15:10 11.3 98 10 11 32 39 1012.7 2.6 22.7 29.0 47.0 123.7 121.2 418.0
14 15:00 11.4 98 10.06 11.1 30 50 1012.4 2.6 22.9 29.1 47.2 124.2 121.9 420.4
14 14:50 11.9 98 10.38 11.6 32 43 1012.4 2.6 23.5 29.5 48.3 127.2 125.7 433.7
14 14:40 12 98 10.45 11.7 24 30 1012.3 2.4 23.7 29.6 48.6 127.8 126.5 436.6
14 14:30 11.9 98 10.38 11.6 24 32 1012.3 2.4 23.5 29.5 48.3 127.1 125.7 433.7
14 14:20 12 98 10.45 11.7 24 32 1012.3 2.4 23.7 29.6 48.6 127.8 126.5 436.6
14 14:10 11.9 98 10.38 11.6 33 37 1012.2 2.4 23.5 29.5 48.3 127.1 125.7 433.6
14 14:00 11.9 98 10.38 11.6 26 32 1012.3 2.4 23.5 29.5 48.3 127.1 125.7 433.7
14 13:50 11.8 98 10.32 11.5 30 35 1012.3 2.4 23.4 29.4 48.1 126.6 125.0 431.2
14 13:40 11.8 98 10.32 11.5 22 28 1012.4 2.4 23.4 29.4 48.1 126.6 125.0 431.2
14 13:30 11.7 98 10.25 11.4 22 33 1012.4 2.4 23.2 29.3 47.9 126.0 124.2 428.3
14 13:20 11.6 98 10.19 11.3 30 32 1012.5 2.2 23.1 29.2 47.7 125.4 123.5 425.8
14 13:10 11.6 98 10.19 11.3 24 28 1012.7 2.2 23.1 29.2 47.7 125.5 123.5 425.9
14 13:00 11.5 98 10.12 11.2 26 35 1012.8 1.8 23.0 29.2 47.4 124.8 122.6 423.0
14 12:50 11.5 98 10.12 11.2 24 28 1012.8 1.8 23.0 29.2 47.4 124.8 122.6 423.0
14 12:40 11.4 98 10.06 11.1 26 32 1012.9 1.8 22.9 29.1 47.2 124.3 122.0 420.5
14 12:30 11.3 98 10 11 28 37 1013 1.6 22.7 29.0 47.0 123.8 121.3 418.1
14 12:20 11.4 98 10.06 11.1 20 28 1013.2 1.6 22.9 29.1 47.3 124.3 122.0 420.6
14 12:10 11.3 98 10 11 22 30 1013.2 1.6 22.7 29.0 47.1 123.8 121.3 418.2
14 12:00 11.2 98 9.94 10.9 26 30 1013.3 1.6 22.6 29.0 46.9 123.2 120.6 415.7
14 11:50 11.3 98 10 11 20 26 1013.5 1.4 22.7 29.0 47.1 123.8 121.3 418.3
14 11:40 11.1 98 9.87 10.8 17 19 1013.6 1.2 22.5 28.9 46.6 122.6 119.8 412.8
14 11:30 11 98 9.81 10.7 26 33 1013.6 1 22.3 28.8 46.4 122.1 119.1 410.4
14 11:20 10.8 98 9.69 10.5 22 28 1013.7 0.8 22.1 28.7 46.0 121.0 117.7 405.4
14 11:10 10.9 97 9.65 10.4 19 26 1013.9 0.6 22.0 28.6 45.8 120.4 117.0 403.0
14 11:00 10.7 97 9.53 10.2 24 28 1014 0.4 21.7 28.4 45.4 119.3 115.6 398.1
14 10:50 10.8 97 9.59 10.3 17 20 1014.1 0.2 21.9 28.5 45.6 119.9 116.3 400.6
14 10:40 10.7 97 9.53 10.2 22 28 1014.1 0.2 21.7 28.4 45.4 119.4 115.6 398.1
14 10:30 10.6 97 9.47 10.1 20 28 1014.2 0.2 21.6 28.4 45.2 118.8 114.9 395.6
14 10:20 10.6 97 9.47 10.1 19 24 1014.2 0 21.6 28.4 45.2 118.8 114.9 395.6
14 10:10 10.5 97 9.41 10 19 20 1014.3 0 21.5 28.3 45.0 118.3 114.2 393.2
14 10:00 10.3 96 9.2 9.7 22 33 1014.3 0 21.1 28.0 44.2 116.2 111.5 383.8
14 09:50 10.3 96 9.2 9.7 26 35 1014.3 0 21.1 28.0 44.2 116.2 111.5 383.8
14 09:40 10.3 95 9.1 9.5 22 30 1014.2 0 20.8 27.8 43.8 115.0 110.1 378.8
14 09:30 10.3 94 9 9.4 20 24 1014.2 0 20.6 27.7 43.3 113.9 108.6 373.8
14 09:20 10.4 93 8.97 9.3 28 35 1014.2 0 20.6 27.6 43.2 113.4 108.1 371.9
14 09:10 10.5 92 8.92 9.3 20 26 1014.4 0 20.4 27.5 42.9 112.7 107.3 369.0
14 09:00 10.5 91 8.83 9.1 26 28 1014.4 0 20.2 27.3 42.5 111.7 106.0 364.6
14 08:50 10.6 91 8.88 9.2 19 22 1014.4 11.8 20.3 27.4 42.7 112.1 106.6 366.6

Last Refresh: 15-Jun-2024 01:33:28

Bureau of Meteorology